createdAt,value
2019-06-20T00:02:15.784Z,99711.69
2019-06-20T00:04:47.697Z,99709.00
2019-06-20T00:07:19.105Z,99707.77
2019-06-20T00:09:52.513Z,99711.35
2019-06-20T00:12:23.640Z,99718.50
2019-06-20T00:14:54.573Z,99713.15
2019-06-20T00:17:26.135Z,99712.95
2019-06-20T00:19:57.695Z,99714.68
2019-06-20T00:22:28.831Z,99721.34
2019-06-20T00:25:02.863Z,99715.38
2019-06-20T00:27:33.213Z,99720.56
2019-06-20T00:30:04.931Z,99720.56
2019-06-20T00:32:36.375Z,99724.93
2019-06-20T00:35:08.131Z,99722.98
2019-06-20T00:37:39.303Z,99730.76
2019-06-20T00:40:10.257Z,99723.66
2019-06-20T00:42:41.464Z,99728.08
2019-06-20T00:45:13.326Z,99727.42
2019-06-20T00:47:44.676Z,99721.06
2019-06-20T00:50:16.547Z,99727.83
2019-06-20T00:52:48.095Z,99728.78
2019-06-20T00:55:19.189Z,99730.19
2019-06-20T00:57:50.789Z,99728.45
2019-06-20T01:00:22.354Z,99724.63
2019-06-20T01:02:53.695Z,99725.00
2019-06-20T01:05:25.463Z,99733.70
2019-06-20T01:07:57.008Z,99734.13
2019-06-20T01:10:28.290Z,99735.36
2019-06-20T01:12:59.299Z,99731.87
2019-06-20T01:15:30.272Z,99736.47
2019-06-20T01:18:01.586Z,99739.66
2019-06-20T01:20:32.871Z,99739.28
2019-06-20T01:23:03.901Z,99733.48
2019-06-20T01:25:36.148Z,99731.53
2019-06-20T01:28:07.187Z,99729.45
2019-06-20T01:30:38.650Z,99734.45
2019-06-20T01:33:09.514Z,99741.54
2019-06-20T01:35:40.728Z,99747.27
2019-06-20T01:43:00.751Z,99749.87
2019-06-20T01:45:32.198Z,99748.55
2019-06-20T01:48:03.345Z,99743.86
2019-06-20T01:50:34.793Z,99752.80
2019-06-20T01:53:06.267Z,99759.34
2019-06-20T01:55:38.006Z,99761.30
2019-06-20T01:58:08.850Z,99763.89
2019-06-20T02:00:49.841Z,99762.83
2019-06-20T02:03:21.474Z,99766.80
2019-06-20T02:05:52.925Z,99767.06
2019-06-20T02:08:24.785Z,99771.61
2019-06-20T02:10:56.854Z,99773.86
2019-06-20T02:13:28.614Z,99768.42
2019-06-20T02:15:59.963Z,99778.80
2019-06-20T02:26:24.310Z,99778.41
2019-06-20T02:28:55.589Z,99777.84
2019-06-20T02:31:26.915Z,99772.50
2019-06-20T02:33:58.253Z,99771.97
2019-06-20T02:36:30.116Z,99765.92
2019-06-20T02:39:01.668Z,99763.84
2019-06-20T02:41:32.608Z,99781.87
2019-06-20T02:44:04.373Z,99771.25
2019-06-20T02:46:35.942Z,99769.11
2019-06-20T02:49:07.472Z,99770.60
2019-06-20T02:51:38.826Z,99771.51
2019-06-20T02:54:10.277Z,99775.41
2019-06-20T02:56:41.833Z,99785.83
2019-06-20T02:59:13.494Z,99774.23
2019-06-20T03:01:45.043Z,99772.16
2019-06-20T03:04:18.134Z,99772.89
2019-06-20T03:13:24.956Z,99776.30
2019-06-20T03:15:56.411Z,99782.74
2019-06-20T03:18:27.483Z,99782.14
2019-06-20T03:20:58.396Z,99794.27
2019-06-20T03:23:29.471Z,99784.88
2019-06-20T03:26:00.371Z,99790.45
2019-06-20T03:28:31.725Z,99793.29
2019-06-20T03:31:02.967Z,99787.70
2019-06-20T03:33:33.972Z,99788.95
2019-06-20T03:36:05.153Z,99795.18
2019-06-20T03:38:36.506Z,99796.66
2019-06-20T03:45:32.059Z,99791.98
2019-06-20T03:48:03.812Z,99786.05
2019-06-20T03:50:35.196Z,99786.05
2019-06-20T03:53:06.099Z,99784.75
2019-06-20T03:55:37.450Z,99779.30
2019-06-20T03:58:08.805Z,99781.83
2019-06-20T04:00:39.772Z,99778.77
2019-06-20T04:03:11.805Z,99781.92
2019-06-20T04:05:43.163Z,99780.05
2019-06-20T04:08:14.407Z,99781.97
2019-06-20T04:10:45.756Z,99781.50
2019-06-20T04:13:16.994Z,99789.76
2019-06-20T04:15:48.551Z,99793.44
2019-06-20T04:18:19.633Z,99785.43
2019-06-20T04:20:50.328Z,99784.89
2019-06-20T04:23:21.681Z,99788.95
2019-06-20T04:25:53.128Z,99787.11
2019-06-20T04:28:24.107Z,99785.20
2019-06-20T04:30:55.730Z,99782.98
2019-06-20T04:33:26.804Z,99778.80
2019-06-20T04:35:57.605Z,99785.05
2019-06-20T04:38:29.263Z,99776.48
2019-06-20T04:41:00.716Z,99777.16
2019-06-20T04:43:31.688Z,99772.53
2019-06-20T04:46:07.106Z,99776.97
2019-06-20T04:48:38.384Z,99776.44
2019-06-20T04:51:09.944Z,99768.49
2019-06-20T04:53:41.185Z,99773.20
2019-06-20T04:56:12.112Z,99766.53
2019-06-20T04:58:43.861Z,99776.33
2019-06-20T05:01:14.860Z,99775.03
2019-06-20T05:03:46.661Z,99773.05
2019-06-20T05:06:18.013Z,99774.42
2019-06-20T05:08:49.347Z,99777.43
2019-06-20T05:11:21.114Z,99778.80
2019-06-20T05:13:52.766Z,99779.67
2019-06-20T05:16:24.121Z,99777.43
2019-06-20T05:18:55.472Z,99779.20
2019-06-20T05:21:26.540Z,99772.82
2019-06-20T05:23:57.299Z,99778.60
2019-06-20T05:26:28.695Z,99780.17
2019-06-20T05:28:59.666Z,99777.44
2019-06-20T05:31:30.980Z,99780.94
2019-06-20T05:34:02.847Z,99782.83
2019-06-20T05:36:34.297Z,99776.80
2019-06-20T05:39:07.079Z,99783.89
2019-06-20T05:41:38.941Z,99780.50
2019-06-20T05:44:10.292Z,99781.64
2019-06-20T05:46:42.077Z,99786.64
2019-06-20T05:49:13.127Z,99791.45
2019-06-20T05:51:43.927Z,99777.50
2019-06-20T05:54:16.611Z,99781.20
2019-06-20T05:56:48.271Z,99778.42
2019-06-20T05:59:19.717Z,99779.30
2019-06-20T06:01:51.169Z,99782.62
2019-06-20T06:04:22.074Z,99774.79
2019-06-20T06:06:53.356Z,99773.72
2019-06-20T06:09:24.908Z,99773.55
2019-06-20T06:11:56.053Z,99774.48
2019-06-20T06:14:27.035Z,99771.22
2019-06-20T06:16:57.743Z,99773.21
2019-06-20T06:19:29.282Z,99775.18
2019-06-20T06:22:00.172Z,99769.70
2019-06-20T06:24:30.915Z,99771.17
2019-06-20T06:27:01.842Z,99776.97
2019-06-20T06:29:32.361Z,99772.25
2019-06-20T06:32:02.893Z,99773.99
2019-06-20T06:34:33.162Z,99779.77
2019-06-20T06:37:03.952Z,99766.88
2019-06-20T06:39:34.182Z,99768.55
2019-06-20T06:42:05.014Z,99769.39
2019-06-20T06:44:35.544Z,99765.83
2019-06-20T06:47:06.072Z,99768.87
2019-06-20T06:49:36.611Z,99770.56
2019-06-20T06:52:07.135Z,99763.11
2019-06-20T06:54:37.363Z,99762.84
2019-06-20T06:57:08.197Z,99765.86
2019-06-20T06:59:38.727Z,99763.92
2019-06-20T07:02:08.954Z,99767.24
2019-06-20T07:04:39.174Z,99764.22
2019-06-20T07:07:09.395Z,99765.85
2019-06-20T07:09:39.960Z,99768.59
2019-06-20T07:12:10.525Z,99759.20
2019-06-20T07:14:42.869Z,99764.13
2019-06-20T07:17:13.057Z,99760.21
2019-06-20T07:19:43.581Z,99754.05
2019-06-20T07:22:14.111Z,99756.80
2019-06-20T07:24:44.951Z,99762.77
2019-06-20T07:27:16.101Z,99760.84
2019-06-20T07:29:46.320Z,99766.09
2019-06-20T07:32:16.930Z,99760.77
2019-06-20T07:34:47.384Z,99762.39
2019-06-20T07:37:18.220Z,99759.34
2019-06-20T07:39:48.751Z,99751.03
2019-06-20T07:42:19.281Z,99759.09
2019-06-20T07:44:50.115Z,99749.31
2019-06-20T07:47:20.338Z,99749.75
2019-06-20T07:49:50.561Z,99740.92
2019-06-20T07:52:21.096Z,99754.85
2019-06-20T07:54:51.620Z,99755.55
2019-06-20T07:57:22.155Z,99750.80
2019-06-20T07:59:52.681Z,99753.58
2019-06-20T08:02:23.215Z,99747.36
2019-06-20T08:04:53.507Z,99737.70
2019-06-20T08:07:24.276Z,99728.78
2019-06-20T08:09:54.496Z,99730.38
2019-06-20T08:12:24.717Z,99733.16
2019-06-20T08:14:55.865Z,99741.53
2019-06-20T08:17:35.170Z,99732.73
2019-06-20T08:19:58.152Z,99724.97
2019-06-20T08:22:28.376Z,99733.75
2019-06-20T08:24:59.211Z,99728.59
2019-06-20T08:27:47.562Z,99730.55
2019-06-20T08:30:19.639Z,99731.05
2019-06-20T08:32:50.163Z,99734.97
2019-06-20T08:35:22.227Z,99736.54
2019-06-20T08:37:53.676Z,99730.35
2019-06-20T08:40:24.827Z,99730.69
2019-06-20T08:42:57.155Z,99732.81
2019-06-20T08:45:28.033Z,99723.44
